sensor_id;sensor_type;location;lat;lon;timestamp;pressure;altitude;pressure_sealevel;temperature;humidity
14767;BME280;7475;53.558;9.970;2023-05-24T00:01:25;101966.53;;;10.74;100.00
14767;BME280;7475;53.558;9.970;2023-05-24T00:03:51;101948.72;;;10.76;100.00
14767;BME280;7475;53.558;9.970;2023-05-24T00:06:18;101954.88;;;10.77;100.00
14767;BME280;7475;53.558;9.970;2023-05-24T00:08:44;101958.38;;;10.79;100.00
14767;BME280;7475;53.558;9.970;2023-05-24T00:11:10;101954.75;;;10.80;100.00
14767;BME280;7475;53.558;9.970;2023-05-24T00:13:35;101944.13;;;10.80;100.00
14767;BME280;7475;53.558;9.970;2023-05-24T00:16:01;101939.66;;;10.80;100.00
14767;BME280;7475;53.558;9.970;2023-05-24T00:18:26;101937.09;;;10.79;100.00
14767;BME280;7475;53.558;9.970;2023-05-24T00:20:51;101938.81;;;10.80;100.00
14767;BME280;7475;53.558;9.970;2023-05-24T00:23:17;101932.56;;;10.81;100.00
14767;BME280;7475;53.558;9.970;2023-05-24T00:25:43;101934.28;;;10.82;100.00
14767;BME280;7475;53.558;9.970;2023-05-24T00:28:08;101936.78;;;10.85;100.00
14767;BME280;7475;53.558;9.970;2023-05-24T00:30:33;101927.03;;;10.85;100.00
14767;BME280;7475;53.558;9.970;2023-05-24T00:32:58;101932.34;;;10.85;100.00
14767;BME280;7475;53.558;9.970;2023-05-24T00:35:24;101929.84;;;10.82;100.00
14767;BME280;7475;53.558;9.970;2023-05-24T00:37:49;101924.44;;;10.84;100.00
14767;BME280;7475;53.558;9.970;2023-05-24T00:40:15;101926.16;;;10.85;100.00
14767;BME280;7475;53.558;9.970;2023-05-24T00:42:40;101927.91;;;10.86;100.00
14767;BME280;7475;53.558;9.970;2023-05-24T00:45:06;101925.16;;;10.87;100.00
14767;BME280;7475;53.558;9.970;2023-05-24T00:47:32;101917.13;;;10.89;100.00
14767;BME280;7475;53.558;9.970;2023-05-24T00:49:58;101924.16;;;10.90;100.00
14767;BME280;7475;53.558;9.970;2023-05-24T00:52:23;101925.88;;;10.91;100.00
14767;BME280;7475;53.558;9.970;2023-05-24T00:54:49;101916.97;;;10.92;100.00
14767;BME280;7475;53.558;9.970;2023-05-24T00:57:15;101924.00;;;10.93;100.00
14767;BME280;7475;53.558;9.970;2023-05-24T00:59:43;101920.41;;;10.94;100.00
14767;BME280;7475;53.558;9.970;2023-05-24T01:02:10;101923.06;;;10.94;100.00
14767;BME280;7475;53.558;9.970;2023-05-24T01:04:35;101926.56;;;10.94;100.00
14767;BME280;7475;53.558;9.970;2023-05-24T01:15:08;101916.84;;;10.95;100.00
14767;BME280;7475;53.558;9.970;2023-05-24T01:18:00;101922.06;;;10.97;100.00
14767;BME280;7475;53.558;9.970;2023-05-24T01:20:28;101913.22;;;10.96;100.00
14767;BME280;7475;53.558;9.970;2023-05-24T01:25:47;101904.31;;;10.97;100.00
14767;BME280;7475;53.558;9.970;2023-05-24T01:28:15;101914.09;;;10.97;100.00
14767;BME280;7475;53.558;9.970;2023-05-24T01:30:41;101906.97;;;10.97;100.00
14767;BME280;7475;53.558;9.970;2023-05-24T01:33:07;101904.31;;;10.97;100.00
14767;BME280;7475;53.558;9.970;2023-05-24T01:35:32;101904.31;;;10.97;100.00
14767;BME280;7475;53.558;9.970;2023-05-24T01:38:04;101905.16;;;10.98;100.00
14767;BME280;7475;53.558;9.970;2023-05-24T01:40:30;101904.31;;;10.97;100.00
14767;BME280;7475;53.558;9.970;2023-05-24T01:44:03;101901.59;;;10.99;100.00
14767;BME280;7475;53.558;9.970;2023-05-24T01:46:05;101906.06;;;10.98;100.00
14767;BME280;7475;53.558;9.970;2023-05-24T01:50:58;101904.19;;;11.00;100.00
14767;BME280;7475;53.558;9.970;2023-05-24T01:53:28;101911.22;;;11.01;100.00
14767;BME280;7475;53.558;9.970;2023-05-24T01:55:57;101908.56;;;11.01;100.00
14767;BME280;7475;53.558;9.970;2023-05-24T01:58:25;101909.34;;;11.03;100.00
14767;BME280;7475;53.558;9.970;2023-05-24T02:00:52;101901.44;;;11.02;100.00
14767;BME280;7475;53.558;9.970;2023-05-24T02:03:18;101907.63;;;11.02;100.00
14767;BME280;7475;53.558;9.970;2023-05-24T02:05:45;101904.03;;;11.03;100.00
14767;BME280;7475;53.558;9.970;2023-05-24T02:08:10;101900.44;;;11.04;100.00
14767;BME280;7475;53.558;9.970;2023-05-24T02:10:38;101898.56;;;11.06;100.00
14767;BME280;7475;53.558;9.970;2023-05-24T02:13:04;101905.59;;;11.07;100.00
14767;BME280;7475;53.558;9.970;2023-05-24T02:15:29;101906.47;;;11.08;100.00
14767;BME280;7475;53.558;9.970;2023-05-24T02:17:55;101904.66;;;11.08;100.00
14767;BME280;7475;53.558;9.970;2023-05-24T02:20:20;101902.00;;;11.08;100.00
14767;BME280;7475;53.558;9.970;2023-05-24T02:22:49;101905.59;;;11.07;100.00
14767;BME280;7475;53.558;9.970;2023-05-24T02:25:14;101899.50;;;11.05;100.00
14767;BME280;7475;53.558;9.970;2023-05-24T02:27:40;101905.59;;;11.07;100.00
14767;BME280;7475;53.558;9.970;2023-05-24T02:30:06;101908.31;;;11.06;100.00
14767;BME280;7475;53.558;9.970;2023-05-24T02:32:32;101902.16;;;11.05;100.00
14767;BME280;7475;53.558;9.970;2023-05-24T02:34:59;101911.78;;;11.08;100.00
14767;BME280;7475;53.558;9.970;2023-05-24T02:37:26;101907.31;;;11.08;100.00
14767;BME280;7475;53.558;9.970;2023-05-24T02:39:51;101900.13;;;11.10;100.00
14767;BME280;7475;53.558;9.970;2023-05-24T02:42:16;101905.44;;;11.10;100.00
14767;BME280;7475;53.558;9.970;2023-05-24T02:44:42;101907.16;;;11.11;100.00
14767;BME280;7475;53.558;9.970;2023-05-24T02:47:07;101914.22;;;11.13;100.00
14767;BME280;7475;53.558;9.970;2023-05-24T02:49:32;101907.03;;;11.15;100.00
14767;BME280;7475;53.558;9.970;2023-05-24T02:51:58;101909.69;;;11.15;100.00
14767;BME280;7475;53.558;9.970;2023-05-24T02:54:24;101913.13;;;11.17;100.00
14767;BME280;7475;53.558;9.970;2023-05-24T02:56:49;101912.19;;;11.18;100.00
14767;BME280;7475;53.558;9.970;2023-05-24T02:59:15;101913.94;;;11.19;100.00
14767;BME280;7475;53.558;9.970;2023-05-24T03:01:41;101903.28;;;11.19;100.00
14767;BME280;7475;53.558;9.970;2023-05-24T03:04:06;101909.47;;;11.19;100.00
14767;BME280;7475;53.558;9.970;2023-05-24T03:06:32;101912.06;;;11.21;100.00
14767;BME280;7475;53.558;9.970;2023-05-24T03:08:57;101903.13;;;11.22;100.00
14767;BME280;7475;53.558;9.970;2023-05-24T03:11:23;101904.00;;;11.22;100.00
14767;BME280;7475;53.558;9.970;2023-05-24T03:13:48;101903.13;;;11.22;100.00
14767;BME280;7475;53.558;9.970;2023-05-24T03:16:13;101911.91;;;11.24;100.00
14767;BME280;7475;53.558;9.970;2023-05-24T03:18:39;101904.84;;;11.23;100.00
14767;BME280;7475;53.558;9.970;2023-05-24T03:21:05;101908.28;;;11.25;100.00
14767;BME280;7475;53.558;9.970;2023-05-24T03:23:31;101901.13;;;11.27;100.00
14767;BME280;7475;53.558;9.970;2023-05-24T03:25:57;101894.06;;;11.26;100.00
14767;BME280;7475;53.558;9.970;2023-05-24T03:28:22;101889.66;;;11.25;100.00
14767;BME280;7475;53.558;9.970;2023-05-24T03:30:47;101899.38;;;11.26;100.00
14767;BME280;7475;53.558;9.970;2023-05-24T03:33:13;101897.66;;;11.25;100.00
14767;BME280;7475;53.558;9.970;2023-05-24T03:35:38;101892.31;;;11.25;100.00
14767;BME280;7475;53.558;9.970;2023-05-24T03:38:03;101891.47;;;11.24;100.00
14767;BME280;7475;53.558;9.970;2023-05-24T03:40:29;101894.06;;;11.26;100.00
14767;BME280;7475;53.558;9.970;2023-05-24T03:42:56;101897.66;;;11.25;100.00
14767;BME280;7475;53.558;9.970;2023-05-24T03:45:22;101892.31;;;11.25;100.00
14767;BME280;7475;53.558;9.970;2023-05-24T03:47:47;101894.06;;;11.26;100.00
14767;BME280;7475;53.558;9.970;2023-05-24T03:50:13;101901.13;;;11.27;100.00
14767;BME280;7475;53.558;9.970;2023-05-24T03:52:38;101901.13;;;11.27;100.00
14767;BME280;7475;53.558;9.970;2023-05-24T03:55:04;101905.56;;;11.26;100.00
14767;BME280;7475;53.558;9.970;2023-05-24T03:57:29;101908.13;;;11.28;100.00
14767;BME280;7475;53.558;9.970;2023-05-24T03:59:55;101915.19;;;11.29;100.00
14767;BME280;7475;53.558;9.970;2023-05-24T04:02:20;101916.94;;;11.30;100.00
14767;BME280;7475;53.558;9.970;2023-05-24T04:04:45;101922.25;;;11.30;100.00
14767;BME280;7475;53.558;9.970;2023-05-24T04:07:11;101918.63;;;11.31;100.00
14767;BME280;7475;53.558;9.970;2023-05-24T04:09:38;101927.38;;;11.33;100.00
14767;BME280;7475;53.558;9.970;2023-05-24T04:12:03;101920.34;;;11.32;100.00
14767;BME280;7475;53.558;9.970;2023-05-24T04:14:29;101913.31;;;11.31;100.00
14767;BME280;7475;53.558;9.970;2023-05-24T04:16:54;101922.25;;;11.30;100.00
14767;BME280;7475;53.558;9.970;2023-05-24T04:19:21;101919.59;;;11.30;100.00
14767;BME280;7475;53.558;9.970;2023-05-24T04:21:46;101920.50;;;11.29;100.00
14767;BME280;7475;53.558;9.970;2023-05-24T04:24:12;101913.31;;;11.31;100.00
14767;BME280;7475;53.558;9.970;2023-05-24T04:26:37;101925.75;;;11.30;100.00
14767;BME280;7475;53.558;9.970;2023-05-24T04:29:02;101922.25;;;11.30;100.00
14767;BME280;7475;53.558;9.970;2023-05-24T04:31:28;101922.25;;;11.30;100.00
14767;BME280;7475;53.558;9.970;2023-05-24T04:33:55;101923.16;;;11.29;100.00
14767;BME280;7475;53.558;9.970;2023-05-24T04:36:23;101926.06;;;11.24;100.00
14767;BME280;7475;53.558;9.970;2023-05-24T04:38:49;101929.72;;;11.22;100.00
14767;BME280;7475;53.558;9.970;2023-05-24T04:41:18;101926.28;;;11.20;100.00
14767;BME280;7475;53.558;9.970;2023-05-24T04:43:43;101931.59;;;11.20;100.00
14767;BME280;7475;53.558;9.970;2023-05-24T04:46:09;101931.72;;;11.17;100.00
14767;BME280;7475;53.558;9.970;2023-05-24T04:48:34;101933.63;;;11.15;100.00
14767;BME280;7475;53.558;9.970;2023-05-24T04:51:00;101940.97;;;11.09;100.00
14767;BME280;7475;53.558;9.970;2023-05-24T04:53:25;101946.28;;;11.09;100.00
14767;BME280;7475;53.558;9.970;2023-05-24T04:55:51;101950.56;;;11.12;100.00
14767;BME280;7475;53.558;9.970;2023-05-24T04:58:17;101950.63;;;11.10;100.00
14767;BME280;7475;53.558;9.970;2023-05-24T05:00:43;101949.84;;;11.08;100.00
14767;BME280;7475;53.558;9.970;2023-05-24T05:03:09;101953.28;;;11.10;100.00
14767;BME280;7475;53.558;9.970;2023-05-24T05:05:34;101955.19;;;11.08;100.00
14767;BME280;7475;53.558;9.970;2023-05-24T05:08:00;101950.00;;;11.05;100.00
14767;BME280;7475;53.558;9.970;2023-05-24T05:10:26;101962.44;;;11.05;100.00
14767;BME280;7475;53.558;9.970;2023-05-24T05:12:51;101955.31;;;11.05;100.00
14767;BME280;7475;53.558;9.970;2023-05-24T05:15:17;101964.88;;;11.09;100.00
14767;BME280;7475;53.558;9.970;2023-05-24T05:17:42;101964.75;;;11.13;100.00
14767;BME280;7475;53.558;9.970;2023-05-24T05:20:08;101965.66;;;11.11;100.00
14767;BME280;7475;53.558;9.970;2023-05-24T05:22:33;101965.53;;;11.15;100.00
14767;BME280;7475;53.558;9.970;2023-05-24T05:24:59;101971.56;;;11.18;100.00
14767;BME280;7475;53.558;9.970;2023-05-24T05:27:25;101975.78;;;11.22;100.00
14767;BME280;7475;53.558;9.970;2023-05-24T05:29:50;101977.44;;;11.25;100.00
14767;BME280;7475;53.558;9.970;2023-05-24T05:32:16;101972.03;;;11.26;100.00
14767;BME280;7475;53.558;9.970;2023-05-24T05:34:41;101972.91;;;11.27;100.00
14767;BME280;7475;53.558;9.970;2023-05-24T05:37:06;101967.53;;;11.28;100.00
14767;BME280;7475;53.558;9.970;2023-05-24T05:39:32;101970.75;;;11.35;100.00
14767;BME280;7475;53.558;9.970;2023-05-24T05:41:57;101968.78;;;11.39;100.00
14767;BME280;7475;53.558;9.970;2023-05-24T05:44:23;101972.16;;;11.42;100.00
14767;BME280;7475;53.558;9.970;2023-05-24T05:46:48;101969.34;;;11.45;100.00
14767;BME280;7475;53.558;9.970;2023-05-24T05:49:14;101972.63;;;11.51;100.00
14767;BME280;7475;53.558;9.970;2023-05-24T05:51:41;101979.53;;;11.55;100.00
14767;BME280;7475;53.558;9.970;2023-05-24T05:54:07;101975.78;;;11.59;100.00
14767;BME280;7475;53.558;9.970;2023-05-24T05:56:38;101982.69;;;11.63;100.00
14767;BME280;7475;53.558;9.970;2023-05-24T05:59:09;101985.97;;;11.68;100.00
14767;BME280;7475;53.558;9.970;2023-05-24T06:01:34;101985.97;;;11.68;100.00
14767;BME280;7475;53.558;9.970;2023-05-24T06:04:00;101994.75;;;11.70;100.00
14767;BME280;7475;53.558;9.970;2023-05-24T06:06:25;101997.16;;;11.75;100.00
14767;BME280;7475;53.558;9.970;2023-05-24T06:08:50;102000.56;;;11.78;100.00
14767;BME280;7475;53.558;9.970;2023-05-24T06:11:15;102004.78;;;11.82;100.00
14767;BME280;7475;53.558;9.970;2023-05-24T06:13:41;102010.81;;;11.86;100.00
14767;BME280;7475;53.558;9.970;2023-05-24T06:16:06;102008.94;;;11.88;100.00
14767;BME280;7475;53.558;9.970;2023-05-24T06:18:32;102015.13;;;11.89;100.00
14767;BME280;7475;53.558;9.970;2023-05-24T06:20:58;102012.53;;;11.87;100.00
14767;BME280;7475;53.558;9.970;2023-05-24T06:23:23;102005.47;;;11.86;100.00
14767;BME280;7475;53.558;9.970;2023-05-24T06:25:49;102015.13;;;11.89;100.00
14767;BME280;7475;53.558;9.970;2023-05-24T06:28:14;102016.59;;;11.96;100.00
14767;BME280;7475;53.558;9.970;2023-05-24T06:30:40;102017.06;;;12.04;100.00
14767;BME280;7475;53.558;9.970;2023-05-24T06:33:05;102013.91;;;12.13;100.00
14767;BME280;7475;53.558;9.970;2023-05-24T06:35:30;102011.72;;;12.22;100.00
14767;BME280;7475;53.558;9.970;2023-05-24T06:37:55;102023.78;;;12.29;100.00
14767;BME280;7475;53.558;9.970;2023-05-24T06:40:22;102031.53;;;12.33;100.00
14767;BME280;7475;53.558;9.970;2023-05-24T06:42:47;102034.66;;;12.42;100.00
14767;BME280;7475;53.558;9.970;2023-05-24T06:45:12;102031.59;;;12.49;100.00
14767;BME280;7475;53.558;9.970;2023-05-24T06:47:38;102032.66;;;12.63;100.00
14767;BME280;7475;53.558;9.970;2023-05-24T06:50:04;102033.75;;;12.76;100.00
14767;BME280;7475;53.558;9.970;2023-05-24T06:52:29;102038.22;;;12.91;100.00
14767;BME280;7475;53.558;9.970;2023-05-24T06:54:54;102048.31;;;13.02;100.00
14767;BME280;7475;53.558;9.970;2023-05-24T06:57:20;102043.09;;;13.17;100.00
14767;BME280;7475;53.558;9.970;2023-05-24T06:59:46;102047.25;;;13.38;100.00
14767;BME280;7475;53.558;9.970;2023-05-24T07:02:11;102054.31;;;13.55;100.00
14767;BME280;7475;53.558;9.970;2023-05-24T07:04:37;102055.34;;;13.69;100.00
14767;BME280;7475;53.558;9.970;2023-05-24T07:07:05;102048.25;;;13.83;100.00
14767;BME280;7475;53.558;9.970;2023-05-24T07:09:31;102050.66;;;13.88;100.00
14767;BME280;7475;53.558;9.970;2023-05-24T07:11:57;102047.38;;;13.83;100.00
14767;BME280;7475;53.558;9.970;2023-05-24T07:14:22;102047.22;;;13.86;100.00
14767;BME280;7475;53.558;9.970;2023-05-24T07:16:50;102056.16;;;13.85;100.00
14767;BME280;7475;53.558;9.970;2023-05-24T07:19:15;102056.16;;;13.85;100.00
14767;BME280;7475;53.558;9.970;2023-05-24T07:21:40;102058.06;;;13.83;100.00
14767;BME280;7475;53.558;9.970;2023-05-24T07:24:06;102057.47;;;13.78;100.00
14767;BME280;7475;53.558;9.970;2023-05-24T07:26:32;102066.69;;;13.72;100.00
14767;BME280;7475;53.558;9.970;2023-05-24T07:28:57;102053.81;;;13.64;100.00
14767;BME280;7475;53.558;9.970;2023-05-24T07:31:22;102055.50;;;13.65;100.00
14767;BME280;7475;53.558;9.970;2023-05-24T07:33:47;102050.00;;;13.69;100.00
14767;BME280;7475;53.558;9.970;2023-05-24T07:36:13;102051.38;;;13.76;100.00
14767;BME280;7475;53.558;9.970;2023-05-24T07:38:39;102053.69;;;13.82;100.00
14767;BME280;7475;53.558;9.970;2023-05-24T07:41:06;102045.63;;;13.98;100.00
14767;BME280;7475;53.558;9.970;2023-05-24T07:43:31;102046.63;;;14.11;100.00
14767;BME280;7475;53.558;9.970;2023-05-24T07:45:56;102052.22;;;14.23;100.00
14767;BME280;7475;53.558;9.970;2023-05-24T07:48:22;102047.16;;;14.32;100.00
14767;BME280;7475;53.558;9.970;2023-05-24T07:50:48;102062.66;;;14.42;100.00
14767;BME280;7475;53.558;9.970;2023-05-24T07:53:14;102061.03;;;14.39;100.00
14767;BME280;7475;53.558;9.970;2023-05-24T07:55:40;102067.03;;;14.43;100.00
14767;BME280;7475;53.558;9.970;2023-05-24T07:58:05;102068.94;;;14.41;100.00
14767;BME280;7475;53.558;9.970;2023-05-24T08:00:31;102060.84;;;14.42;100.00
14767;BME280;7475;53.558;9.970;2023-05-24T08:02:58;102063.06;;;14.50;100.00
14767;BME280;7475;53.558;9.970;2023-05-24T08:05:23;102066.13;;;14.58;100.00
14767;BME280;7475;53.558;9.970;2023-05-24T08:07:48;102058.50;;;14.66;100.00
14767;BME280;7475;53.558;9.970;2023-05-24T08:10:14;102065.59;;;14.67;100.00
14767;BME280;7475;53.558;9.970;2023-05-24T08:12:39;102065.88;;;14.77;100.00
14767;BME280;7475;53.558;9.970;2023-05-24T08:15:05;102071.16;;;14.93;100.00
14767;BME280;7475;53.558;9.970;2023-05-24T08:17:31;102073.81;;;15.07;100.00
14767;BME280;7475;53.558;9.970;2023-05-24T08:19:56;102072.38;;;15.16;100.00
14767;BME280;7475;53.558;9.970;2023-05-24T08:22:22;102071.97;;;15.22;100.00
14767;BME280;7475;53.558;9.970;2023-05-24T08:24:47;102072.25;;;15.32;100.00
14767;BME280;7475;53.558;9.970;2023-05-24T08:27:12;102070.78;;;15.41;100.00
14767;BME280;7475;53.558;9.970;2023-05-24T08:29:38;102072.78;;;15.52;100.00
14767;BME280;7475;53.558;9.970;2023-05-24T08:32:04;102063.41;;;15.59;100.00
14767;BME280;7475;53.558;9.970;2023-05-24T08:34:34;102068.81;;;15.72;100.00
14767;BME280;7475;53.558;9.970;2023-05-24T08:37:00;102069.09;;;15.81;100.00
14767;BME280;7475;53.558;9.970;2023-05-24T08:39:26;102068.91;;;15.84;100.00
14767;BME280;7475;53.558;9.970;2023-05-24T08:41:51;102073.81;;;15.78;100.00
14767;BME280;7475;53.558;9.970;2023-05-24T08:44:17;102074.38;;;15.69;100.00
14767;BME280;7475;53.558;9.970;2023-05-24T08:46:43;102086.72;;;15.57;100.00
14767;BME280;7475;53.558;9.970;2023-05-24T08:49:09;102077.47;;;15.48;100.00
14767;BME280;7475;53.558;9.970;2023-05-24T08:51:37;102093.09;;;15.41;100.00
14767;BME280;7475;53.558;9.970;2023-05-24T08:54:04;102086.78;;;15.28;100.00
14767;BME280;7475;53.558;9.970;2023-05-24T08:56:31;102087.56;;;15.16;100.00
14767;BME280;7475;53.558;9.970;2023-05-24T08:58:57;102093.69;;;15.03;100.00
14767;BME280;7475;53.558;9.970;2023-05-24T09:01:23;102095.41;;;14.90;100.00
14767;BME280;7475;53.558;9.970;2023-05-24T09:03:50;102091.75;;;14.77;100.00
14767;BME280;7475;53.558;9.970;2023-05-24T09:06:17;102101.97;;;14.70;100.00
14767;BME280;7475;53.558;9.970;2023-05-24T09:08:43;102104.72;;;14.68;100.00
14767;BME280;7475;53.558;9.970;2023-05-24T09:11:14;102099.75;;;14.77;100.00
14767;BME280;7475;53.558;9.970;2023-05-24T09:13:42;102099.78;;;15.20;100.00
14767;BME280;7475;53.558;9.970;2023-05-24T09:16:08;102099.34;;;15.96;100.00
14767;BME280;7475;53.558;9.970;2023-05-24T09:18:33;102112.81;;;16.75;100.00
14767;BME280;7475;53.558;9.970;2023-05-24T09:20:58;102099.19;;;17.66;100.00
14767;BME280;7475;53.558;9.970;2023-05-24T09:23:25;102099.09;;;18.63;100.00
14767;BME280;7475;53.558;9.970;2023-05-24T09:25:51;102092.69;;;19.11;100.00
14767;BME280;7475;53.558;9.970;2023-05-24T09:28:17;102098.19;;;19.21;100.00
14767;BME280;7475;53.558;9.970;2023-05-24T09:30:43;102092.56;;;19.13;100.00
14767;BME280;7475;53.558;9.970;2023-05-24T09:33:09;102099.91;;;18.99;100.00
14767;BME280;7475;53.558;9.970;2023-05-24T09:35:36;102097.81;;;18.91;100.00
14767;BME280;7475;53.558;9.970;2023-05-24T09:38:02;102102.38;;;18.91;100.00
14767;BME280;7475;53.558;9.970;2023-05-24T09:40:28;102096.97;;;18.91;100.00
14767;BME280;7475;53.558;9.970;2023-05-24T09:43:08;102101.72;;;18.87;100.00
14767;BME280;7475;53.558;9.970;2023-05-24T09:45:40;102098.50;;;18.82;100.00
14767;BME280;7475;53.558;9.970;2023-05-24T09:48:09;102104.50;;;18.74;100.00
14767;BME280;7475;53.558;9.970;2023-05-24T09:50:35;102104.00;;;18.69;100.00
14767;BME280;7475;53.558;9.970;2023-05-24T09:53:01;102104.84;;;18.70;100.00
14767;BME280;7475;53.558;9.970;2023-05-24T09:55:27;102100.09;;;18.73;100.00
14767;BME280;7475;53.558;9.970;2023-05-24T09:58:07;102106.94;;;18.78;100.00
14767;BME280;7475;53.558;9.970;2023-05-24T10:00:38;102107.19;;;18.74;100.00
14767;BME280;7475;53.558;9.970;2023-05-24T10:03:06;102103.97;;;18.58;100.00
14767;BME280;7475;53.558;9.970;2023-05-24T10:05:33;102110.03;;;18.37;100.00
14767;BME280;7475;53.558;9.970;2023-05-24T10:07:59;102111.44;;;18.19;100.00
14767;BME280;7475;53.558;9.970;2023-05-24T10:10:29;102110.03;;;18.02;100.00
14767;BME280;7475;53.558;9.970;2023-05-24T10:12:56;102110.06;;;17.89;100.00
14767;BME280;7475;53.558;9.970;2023-05-24T10:15:22;102107.06;;;17.81;100.00
14767;BME280;7475;53.558;9.970;2023-05-24T10:17:47;102108.28;;;17.77;100.00
14767;BME280;7475;53.558;9.970;2023-05-24T10:20:13;102106.00;;;17.83;100.00
14767;BME280;7475;53.558;9.970;2023-05-24T10:22:46;102105.53;;;18.02;100.00
14767;BME280;7475;53.558;9.970;2023-05-24T10:25:16;102110.50;;;18.31;100.00
14767;BME280;7475;53.558;9.970;2023-05-24T10:27:45;102102.63;;;18.52;100.00
14767;BME280;7475;53.558;9.970;2023-05-24T10:30:22;102106.19;;;18.64;100.00
14767;BME280;7475;53.558;9.970;2023-05-24T10:32:51;102111.94;;;18.71;100.00
14767;BME280;7475;53.558;9.970;2023-05-24T10:35:18;102116.72;;;18.67;100.00
14767;BME280;7475;53.558;9.970;2023-05-24T10:37:47;102112.06;;;18.58;100.00
14767;BME280;7475;53.558;9.970;2023-05-24T10:40:21;102115.56;;;18.47;100.00
14767;BME280;7475;53.558;9.970;2023-05-24T10:42:49;102115.41;;;18.37;100.00
14767;BME280;7475;53.558;9.970;2023-05-24T10:47:47;102120.09;;;18.11;100.00
14767;BME280;7475;53.558;9.970;2023-05-24T10:50:20;102119.94;;;18.01;100.00
14767;BME280;7475;53.558;9.970;2023-05-24T10:52:49;102119.75;;;17.92;100.00
14767;BME280;7475;53.558;9.970;2023-05-24T10:55:15;102124.50;;;17.88;100.00
14767;BME280;7475;53.558;9.970;2023-05-24T10:57:43;102130.72;;;17.89;100.00
14767;BME280;7475;53.558;9.970;2023-05-24T11:02:59;102123.44;;;18.26;100.00
14767;BME280;7475;53.558;9.970;2023-05-24T11:05:34;102126.09;;;18.50;100.00
14767;BME280;7475;53.558;9.970;2023-05-24T11:08:00;102115.31;;;18.86;100.00
14767;BME280;7475;53.558;9.970;2023-05-24T11:10:30;102115.59;;;19.28;100.00
14767;BME280;7475;53.558;9.970;2023-05-24T11:13:02;102109.78;;;19.67;100.00
14767;BME280;7475;53.558;9.970;2023-05-24T11:15:28;102099.03;;;19.99;100.00
14767;BME280;7475;53.558;9.970;2023-05-24T11:20:44;102117.88;;;20.10;100.00
14767;BME280;7475;53.558;9.970;2023-05-24T11:23:11;102110.66;;;19.99;100.00
14767;BME280;7475;53.558;9.970;2023-05-24T11:25:38;102116.94;;;20.00;100.00
14767;BME280;7475;53.558;9.970;2023-05-24T11:28:08;102111.97;;;20.37;100.00
14767;BME280;7475;53.558;9.970;2023-05-24T11:30:41;102111.50;;;20.65;100.00
14767;BME280;7475;53.558;9.970;2023-05-24T11:33:17;102101.59;;;20.75;100.00
14767;BME280;7475;53.558;9.970;2023-05-24T11:35:43;102108.13;;;21.44;100.00
14767;BME280;7475;53.558;9.970;2023-05-24T11:38:13;102103.19;;;22.86;98.11
14767;BME280;7475;53.558;9.970;2023-05-24T11:40:44;102107.25;;;23.00;89.81
14767;BME280;7475;53.558;9.970;2023-05-24T11:43:11;102108.53;;;22.58;88.41
14767;BME280;7475;53.558;9.970;2023-05-24T11:45:40;102122.78;;;22.01;93.01
14767;BME280;7475;53.558;9.970;2023-05-24T11:48:06;102121.47;;;21.36;99.33
14767;BME280;7475;53.558;9.970;2023-05-24T11:50:31;102116.09;;;20.74;100.00
14767;BME280;7475;53.558;9.970;2023-05-24T11:53:01;102119.06;;;20.17;100.00
14767;BME280;7475;53.558;9.970;2023-05-24T11:55:27;102123.84;;;19.70;100.00
14767;BME280;7475;53.558;9.970;2023-05-24T11:57:56;102128.81;;;19.31;100.00
14767;BME280;7475;53.558;9.970;2023-05-24T12:00:25;102132.22;;;18.99;100.00
14767;BME280;7475;53.558;9.970;2023-05-24T12:02:51;102127.97;;;18.72;100.00
14767;BME280;7475;53.558;9.970;2023-05-24T12:05:18;102131.59;;;18.49;100.00
14767;BME280;7475;53.558;9.970;2023-05-24T12:07:44;102132.28;;;18.28;100.00
14767;BME280;7475;53.558;9.970;2023-05-24T12:10:14;102128.16;;;18.11;100.00
14767;BME280;7475;53.558;9.970;2023-05-24T12:12:43;102145.06;;;18.00;100.00
14767;BME280;7475;53.558;9.970;2023-05-24T12:15:09;102147.25;;;17.95;100.00
14767;BME280;7475;53.558;9.970;2023-05-24T12:17:35;102145.53;;;17.94;100.00
14767;BME280;7475;53.558;9.970;2023-05-24T12:20:02;102147.03;;;17.98;100.00
14767;BME280;7475;53.558;9.970;2023-05-24T12:22:28;102144.63;;;18.07;100.00
14767;BME280;7475;53.558;9.970;2023-05-24T12:24:56;102140.03;;;18.20;100.00
14767;BME280;7475;53.558;9.970;2023-05-24T12:27:26;102139.88;;;18.46;100.00
14767;BME280;7475;53.558;9.970;2023-05-24T12:29:51;102141.19;;;18.75;100.00
14767;BME280;7475;53.558;9.970;2023-05-24T12:32:17;102144.22;;;19.06;100.00
14767;BME280;7475;53.558;9.970;2023-05-24T12:34:43;102146.41;;;19.24;100.00
14767;BME280;7475;53.558;9.970;2023-05-24T12:37:09;102148.88;;;19.27;100.00
14767;BME280;7475;53.558;9.970;2023-05-24T12:39:36;102145.81;;;19.20;100.00
14767;BME280;7475;53.558;9.970;2023-05-24T12:42:03;102158.16;;;19.11;100.00
14767;BME280;7475;53.558;9.970;2023-05-24T12:46:55;102152.78;;;19.11;100.00
14767;BME280;7475;53.558;9.970;2023-05-24T12:49:22;102146.28;;;19.14;100.00
14767;BME280;7475;53.558;9.970;2023-05-24T12:51:48;102154.63;;;19.11;100.00
14767;BME280;7475;53.558;9.970;2023-05-24T12:54:14;102157.19;;;19.01;100.00
14767;BME280;7475;53.558;9.970;2023-05-24T12:56:39;102154.47;;;18.90;100.00
14767;BME280;7475;53.558;9.970;2023-05-24T12:59:04;102156.69;;;18.85;100.00
14767;BME280;7475;53.558;9.970;2023-05-24T13:01:30;102152.34;;;18.82;100.00
14767;BME280;7475;53.558;9.970;2023-05-24T13:03:55;102152.09;;;18.74;100.00
14767;BME280;7475;53.558;9.970;2023-05-24T13:06:20;102152.66;;;18.66;100.00
14767;BME280;7475;53.558;9.970;2023-05-24T13:08:46;102153.03;;;18.62;100.00
14767;BME280;7475;53.558;9.970;2023-05-24T13:11:11;102152.66;;;18.66;100.00